Terminal Aerodrome Forecast
Issued by NWS Midland/Odessa, TX

Home | Current Version | Previous Version | Text Only | Print | Product List | Glossary On
Versions: 1 2 3 4 5 6 7 8 9 10 11 12 13 14 15 16 17 18 19 20 21 22
000
FTUS44 KMAF 271406 AAA
TAFMAF
TAF AMD
KMAF 271406Z 2714/2812 14011KT P6SM FEW070 SCT250
      TEMPO 2714/2716 BKN007=

USA.gov is the U.S. government's official web portal to all federal, state and local government web resources and services.